sensor_id;sensor_type;location;lat;lon;timestamp;P1;durP1;ratioP1;P2;durP2;ratioP2
28166;SDS011;15455;53.376;-6.262;2023-03-31T00:01:20;27.23;;;2.75;;
28166;SDS011;15455;53.376;-6.262;2023-03-31T00:04:08;17.13;;;2.42;;
28166;SDS011;15455;53.376;-6.262;2023-03-31T00:06:58;20.98;;;2.92;;
28166;SDS011;15455;53.376;-6.262;2023-03-31T00:09:43;28.83;;;3.13;;
28166;SDS011;15455;53.376;-6.262;2023-03-31T00:12:30;12.43;;;2.22;;
28166;SDS011;15455;53.376;-6.262;2023-03-31T00:15:15;13.75;;;2.25;;
28166;SDS011;15455;53.376;-6.262;2023-03-31T00:18:01;20.67;;;2.42;;
28166;SDS011;15455;53.376;-6.262;2023-03-31T00:20:47;11.40;;;2.03;;
28166;SDS011;15455;53.376;-6.262;2023-03-31T00:23:32;12.18;;;2.20;;
28166;SDS011;15455;53.376;-6.262;2023-03-31T00:26:18;15.30;;;1.67;;
28166;SDS011;15455;53.376;-6.262;2023-03-31T00:29:05;11.98;;;1.52;;
28166;SDS011;15455;53.376;-6.262;2023-03-31T00:31:52;12.25;;;1.90;;
28166;SDS011;15455;53.376;-6.262;2023-03-31T00:34:39;13.75;;;2.40;;
28166;SDS011;15455;53.376;-6.262;2023-03-31T00:37:25;13.52;;;1.88;;
28166;SDS011;15455;53.376;-6.262;2023-03-31T00:40:11;12.43;;;1.73;;
28166;SDS011;15455;53.376;-6.262;2023-03-31T00:42:56;11.15;;;2.20;;
28166;SDS011;15455;53.376;-6.262;2023-03-31T00:45:42;17.13;;;2.10;;
28166;SDS011;15455;53.376;-6.262;2023-03-31T00:48:29;13.30;;;1.52;;
28166;SDS011;15455;53.376;-6.262;2023-03-31T00:51:16;9.88;;;1.88;;
28166;SDS011;15455;53.376;-6.262;2023-03-31T00:54:04;15.52;;;2.17;;
28166;SDS011;15455;53.376;-6.262;2023-03-31T00:56:53;21.02;;;2.08;;
28166;SDS011;15455;53.376;-6.262;2023-03-31T00:59:44;11.88;;;1.55;;
28166;SDS011;15455;53.376;-6.262;2023-03-31T01:02:33;10.43;;;1.92;;
28166;SDS011;15455;53.376;-6.262;2023-03-31T01:05:33;10.75;;;1.70;;
28166;SDS011;15455;53.376;-6.262;2023-03-31T01:08:26;11.35;;;1.95;;
28166;SDS011;15455;53.376;-6.262;2023-03-31T01:11:13;17.58;;;1.83;;
28166;SDS011;15455;53.376;-6.262;2023-03-31T01:14:01;11.93;;;1.50;;
28166;SDS011;15455;53.376;-6.262;2023-03-31T01:16:48;8.95;;;1.50;;
28166;SDS011;15455;53.376;-6.262;2023-03-31T01:38:15;14.13;;;2.00;;
28166;SDS011;15455;53.376;-6.262;2023-03-31T01:47:58;14.50;;;1.88;;
28166;SDS011;15455;53.376;-6.262;2023-03-31T01:57:01;11.45;;;1.67;;
28166;SDS011;15455;53.376;-6.262;2023-03-31T02:00:03;17.48;;;1.88;;
28166;SDS011;15455;53.376;-6.262;2023-03-31T02:03:00;9.45;;;2.33;;
28166;SDS011;15455;53.376;-6.262;2023-03-31T02:05:50;12.85;;;1.65;;
28166;SDS011;15455;53.376;-6.262;2023-03-31T02:08:40;15.77;;;1.80;;
28166;SDS011;15455;53.376;-6.262;2023-03-31T02:11:36;15.30;;;2.40;;
28166;SDS011;15455;53.376;-6.262;2023-03-31T02:14:25;15.50;;;2.22;;
28166;SDS011;15455;53.376;-6.262;2023-03-31T02:17:16;32.75;;;2.08;;
28166;SDS011;15455;53.376;-6.262;2023-03-31T02:20:04;17.52;;;2.10;;
28166;SDS011;15455;53.376;-6.262;2023-03-31T02:22:55;16.33;;;2.80;;
28166;SDS011;15455;53.376;-6.262;2023-03-31T02:25:44;11.43;;;2.30;;
28166;SDS011;15455;53.376;-6.262;2023-03-31T02:28:34;17.10;;;2.13;;
28166;SDS011;15455;53.376;-6.262;2023-03-31T02:34:14;16.23;;;1.63;;
28166;SDS011;15455;53.376;-6.262;2023-03-31T02:37:00;17.23;;;1.63;;
28166;SDS011;15455;53.376;-6.262;2023-03-31T02:39:46;12.43;;;1.38;;
28166;SDS011;15455;53.376;-6.262;2023-03-31T02:42:36;19.85;;;1.85;;
28166;SDS011;15455;53.376;-6.262;2023-03-31T02:48:38;15.60;;;1.83;;
28166;SDS011;15455;53.376;-6.262;2023-03-31T02:57:37;11.27;;;1.50;;
28166;SDS011;15455;53.376;-6.262;2023-03-31T03:01:05;7.00;;;1.40;;
28166;SDS011;15455;53.376;-6.262;2023-03-31T03:04:04;17.05;;;1.73;;
28166;SDS011;15455;53.376;-6.262;2023-03-31T03:07:21;26.30;;;2.63;;
28166;SDS011;15455;53.376;-6.262;2023-03-31T03:10:09;12.70;;;2.22;;
28166;SDS011;15455;53.376;-6.262;2023-03-31T03:13:08;11.70;;;2.03;;
28166;SDS011;15455;53.376;-6.262;2023-03-31T03:19:21;16.42;;;2.83;;
28166;SDS011;15455;53.376;-6.262;2023-03-31T03:22:08;14.30;;;2.08;;
28166;SDS011;15455;53.376;-6.262;2023-03-31T03:24:54;18.63;;;2.53;;
28166;SDS011;15455;53.376;-6.262;2023-03-31T03:27:39;21.92;;;2.78;;
28166;SDS011;15455;53.376;-6.262;2023-03-31T03:30:25;18.23;;;2.97;;
28166;SDS011;15455;53.376;-6.262;2023-03-31T03:33:10;15.63;;;2.92;;
28166;SDS011;15455;53.376;-6.262;2023-03-31T03:36:01;15.57;;;1.85;;
28166;SDS011;15455;53.376;-6.262;2023-03-31T03:38:46;18.20;;;2.22;;
28166;SDS011;15455;53.376;-6.262;2023-03-31T03:41:32;29.20;;;3.70;;
28166;SDS011;15455;53.376;-6.262;2023-03-31T03:44:18;17.35;;;2.72;;
28166;SDS011;15455;53.376;-6.262;2023-03-31T03:47:04;13.05;;;2.47;;
28166;SDS011;15455;53.376;-6.262;2023-03-31T03:49:49;18.20;;;3.10;;
28166;SDS011;15455;53.376;-6.262;2023-03-31T03:52:35;16.90;;;3.10;;
28166;SDS011;15455;53.376;-6.262;2023-03-31T03:55:20;27.92;;;3.22;;
28166;SDS011;15455;53.376;-6.262;2023-03-31T03:58:07;10.48;;;2.25;;
28166;SDS011;15455;53.376;-6.262;2023-03-31T04:00:52;22.27;;;2.70;;
28166;SDS011;15455;53.376;-6.262;2023-03-31T04:03:38;23.00;;;2.10;;
28166;SDS011;15455;53.376;-6.262;2023-03-31T04:06:23;15.20;;;2.20;;
28166;SDS011;15455;53.376;-6.262;2023-03-31T04:09:09;14.38;;;2.20;;
28166;SDS011;15455;53.376;-6.262;2023-03-31T04:11:55;14.52;;;2.42;;
28166;SDS011;15455;53.376;-6.262;2023-03-31T04:14:41;22.33;;;2.95;;
28166;SDS011;15455;53.376;-6.262;2023-03-31T04:17:26;15.10;;;2.22;;
28166;SDS011;15455;53.376;-6.262;2023-03-31T04:20:19;15.50;;;2.15;;
28166;SDS011;15455;53.376;-6.262;2023-03-31T04:23:05;22.15;;;2.72;;
28166;SDS011;15455;53.376;-6.262;2023-03-31T04:25:53;22.70;;;2.40;;
28166;SDS011;15455;53.376;-6.262;2023-03-31T04:28:38;20.05;;;3.08;;
28166;SDS011;15455;53.376;-6.262;2023-03-31T04:31:26;23.58;;;3.15;;
28166;SDS011;15455;53.376;-6.262;2023-03-31T04:34:15;17.48;;;2.63;;
28166;SDS011;15455;53.376;-6.262;2023-03-31T04:37:00;18.23;;;2.95;;
28166;SDS011;15455;53.376;-6.262;2023-03-31T04:39:46;23.30;;;3.05;;
28166;SDS011;15455;53.376;-6.262;2023-03-31T04:42:34;25.13;;;2.22;;
28166;SDS011;15455;53.376;-6.262;2023-03-31T04:45:20;22.38;;;3.35;;
28166;SDS011;15455;53.376;-6.262;2023-03-31T04:48:05;19.40;;;3.00;;
28166;SDS011;15455;53.376;-6.262;2023-03-31T04:50:52;16.95;;;2.63;;
28166;SDS011;15455;53.376;-6.262;2023-03-31T04:53:37;21.05;;;2.40;;
28166;SDS011;15455;53.376;-6.262;2023-03-31T04:56:23;24.08;;;3.28;;
28166;SDS011;15455;53.376;-6.262;2023-03-31T04:59:09;15.85;;;1.90;;
28166;SDS011;15455;53.376;-6.262;2023-03-31T05:01:55;13.52;;;2.15;;
28166;SDS011;15455;53.376;-6.262;2023-03-31T05:04:41;19.05;;;2.38;;
28166;SDS011;15455;53.376;-6.262;2023-03-31T05:07:26;19.70;;;2.38;;
28166;SDS011;15455;53.376;-6.262;2023-03-31T05:10:11;18.00;;;2.88;;
28166;SDS011;15455;53.376;-6.262;2023-03-31T05:12:57;25.23;;;3.45;;
28166;SDS011;15455;53.376;-6.262;2023-03-31T05:15:42;31.60;;;3.03;;
28166;SDS011;15455;53.376;-6.262;2023-03-31T05:18:29;24.75;;;3.15;;
28166;SDS011;15455;53.376;-6.262;2023-03-31T05:21:15;16.10;;;3.38;;
28166;SDS011;15455;53.376;-6.262;2023-03-31T05:24:03;15.38;;;2.28;;
28166;SDS011;15455;53.376;-6.262;2023-03-31T05:26:48;21.10;;;2.42;;
28166;SDS011;15455;53.376;-6.262;2023-03-31T05:29:37;24.02;;;2.92;;
28166;SDS011;15455;53.376;-6.262;2023-03-31T05:32:22;27.05;;;2.75;;
28166;SDS011;15455;53.376;-6.262;2023-03-31T05:35:09;28.20;;;2.83;;
28166;SDS011;15455;53.376;-6.262;2023-03-31T05:37:55;21.98;;;2.67;;
28166;SDS011;15455;53.376;-6.262;2023-03-31T05:40:40;25.80;;;3.00;;
28166;SDS011;15455;53.376;-6.262;2023-03-31T05:43:26;26.40;;;2.90;;
28166;SDS011;15455;53.376;-6.262;2023-03-31T05:46:11;20.38;;;3.03;;
28166;SDS011;15455;53.376;-6.262;2023-03-31T05:48:57;20.15;;;2.97;;
28166;SDS011;15455;53.376;-6.262;2023-03-31T05:51:42;28.17;;;3.10;;
28166;SDS011;15455;53.376;-6.262;2023-03-31T05:54:28;32.13;;;3.28;;
28166;SDS011;15455;53.376;-6.262;2023-03-31T05:57:13;28.45;;;3.10;;
28166;SDS011;15455;53.376;-6.262;2023-03-31T05:59:59;26.20;;;3.42;;
28166;SDS011;15455;53.376;-6.262;2023-03-31T06:02:44;27.42;;;2.80;;
28166;SDS011;15455;53.376;-6.262;2023-03-31T06:05:30;23.80;;;3.00;;
28166;SDS011;15455;53.376;-6.262;2023-03-31T06:08:16;19.27;;;3.40;;
28166;SDS011;15455;53.376;-6.262;2023-03-31T06:11:05;24.75;;;3.55;;
28166;SDS011;15455;53.376;-6.262;2023-03-31T06:13:54;22.50;;;3.65;;
28166;SDS011;15455;53.376;-6.262;2023-03-31T06:16:40;18.05;;;2.97;;
28166;SDS011;15455;53.376;-6.262;2023-03-31T06:19:25;25.42;;;3.15;;
28166;SDS011;15455;53.376;-6.262;2023-03-31T06:22:11;16.98;;;3.17;;
28166;SDS011;15455;53.376;-6.262;2023-03-31T06:24:56;34.35;;;3.72;;
28166;SDS011;15455;53.376;-6.262;2023-03-31T06:27:41;27.95;;;3.50;;
28166;SDS011;15455;53.376;-6.262;2023-03-31T06:30:27;22.50;;;3.17;;
28166;SDS011;15455;53.376;-6.262;2023-03-31T06:33:12;15.30;;;2.75;;
28166;SDS011;15455;53.376;-6.262;2023-03-31T06:35:58;23.85;;;3.30;;
28166;SDS011;15455;53.376;-6.262;2023-03-31T06:38:45;28.75;;;3.83;;
28166;SDS011;15455;53.376;-6.262;2023-03-31T06:41:31;20.67;;;4.15;;
28166;SDS011;15455;53.376;-6.262;2023-03-31T06:44:17;26.58;;;3.97;;
28166;SDS011;15455;53.376;-6.262;2023-03-31T06:47:03;34.42;;;4.53;;
28166;SDS011;15455;53.376;-6.262;2023-03-31T06:49:48;23.33;;;3.60;;
28166;SDS011;15455;53.376;-6.262;2023-03-31T06:52:35;24.35;;;3.67;;
28166;SDS011;15455;53.376;-6.262;2023-03-31T06:55:21;28.02;;;4.45;;
28166;SDS011;15455;53.376;-6.262;2023-03-31T06:58:06;20.33;;;4.13;;
28166;SDS011;15455;53.376;-6.262;2023-03-31T07:00:52;32.88;;;4.43;;
28166;SDS011;15455;53.376;-6.262;2023-03-31T07:03:37;27.08;;;3.67;;
28166;SDS011;15455;53.376;-6.262;2023-03-31T07:06:23;20.73;;;3.83;;
28166;SDS011;15455;53.376;-6.262;2023-03-31T07:09:09;18.45;;;3.88;;
28166;SDS011;15455;53.376;-6.262;2023-03-31T07:11:54;27.13;;;4.53;;
28166;SDS011;15455;53.376;-6.262;2023-03-31T07:14:41;25.85;;;4.68;;
28166;SDS011;15455;53.376;-6.262;2023-03-31T07:17:27;31.75;;;5.47;;
28166;SDS011;15455;53.376;-6.262;2023-03-31T07:20:13;16.30;;;4.38;;
28166;SDS011;15455;53.376;-6.262;2023-03-31T07:23:02;25.02;;;5.32;;
28166;SDS011;15455;53.376;-6.262;2023-03-31T07:25:49;25.75;;;5.85;;
28166;SDS011;15455;53.376;-6.262;2023-03-31T07:28:35;24.85;;;4.57;;
28166;SDS011;15455;53.376;-6.262;2023-03-31T07:31:20;22.73;;;5.40;;
28166;SDS011;15455;53.376;-6.262;2023-03-31T07:34:06;23.08;;;5.05;;
28166;SDS011;15455;53.376;-6.262;2023-03-31T07:36:53;17.48;;;5.13;;
28166;SDS011;15455;53.376;-6.262;2023-03-31T07:39:39;27.65;;;5.72;;
28166;SDS011;15455;53.376;-6.262;2023-03-31T07:42:25;28.00;;;4.90;;
28166;SDS011;15455;53.376;-6.262;2023-03-31T07:45:10;24.55;;;5.38;;
28166;SDS011;15455;53.376;-6.262;2023-03-31T07:47:55;25.70;;;5.63;;
28166;SDS011;15455;53.376;-6.262;2023-03-31T07:50:41;19.92;;;4.60;;
28166;SDS011;15455;53.376;-6.262;2023-03-31T07:53:35;27.58;;;5.55;;
28166;SDS011;15455;53.376;-6.262;2023-03-31T07:56:21;30.40;;;5.45;;
28166;SDS011;15455;53.376;-6.262;2023-03-31T07:59:08;26.70;;;7.00;;
28166;SDS011;15455;53.376;-6.262;2023-03-31T08:01:54;21.65;;;6.15;;
28166;SDS011;15455;53.376;-6.262;2023-03-31T08:04:39;25.42;;;5.80;;
28166;SDS011;15455;53.376;-6.262;2023-03-31T08:07:27;15.07;;;5.07;;
28166;SDS011;15455;53.376;-6.262;2023-03-31T08:10:17;27.23;;;6.20;;
28166;SDS011;15455;53.376;-6.262;2023-03-31T08:13:10;18.40;;;5.53;;
28166;SDS011;15455;53.376;-6.262;2023-03-31T08:15:55;31.60;;;5.65;;
28166;SDS011;15455;53.376;-6.262;2023-03-31T08:18:41;23.70;;;4.63;;
28166;SDS011;15455;53.376;-6.262;2023-03-31T08:21:27;23.60;;;4.57;;
28166;SDS011;15455;53.376;-6.262;2023-03-31T08:24:13;23.23;;;4.78;;
28166;SDS011;15455;53.376;-6.262;2023-03-31T08:26:58;23.95;;;4.90;;
28166;SDS011;15455;53.376;-6.262;2023-03-31T08:29:44;26.02;;;4.35;;
28166;SDS011;15455;53.376;-6.262;2023-03-31T08:32:30;21.88;;;3.72;;
28166;SDS011;15455;53.376;-6.262;2023-03-31T08:35:19;18.83;;;3.53;;
28166;SDS011;15455;53.376;-6.262;2023-03-31T08:38:04;14.27;;;3.75;;
28166;SDS011;15455;53.376;-6.262;2023-03-31T08:40:50;11.95;;;3.70;;
28166;SDS011;15455;53.376;-6.262;2023-03-31T08:43:38;14.32;;;3.75;;
28166;SDS011;15455;53.376;-6.262;2023-03-31T08:46:28;9.02;;;3.47;;
28166;SDS011;15455;53.376;-6.262;2023-03-31T08:49:17;18.00;;;3.28;;
28166;SDS011;15455;53.376;-6.262;2023-03-31T08:52:06;22.02;;;3.58;;
28166;SDS011;15455;53.376;-6.262;2023-03-31T08:54:58;13.80;;;3.90;;
28166;SDS011;15455;53.376;-6.262;2023-03-31T08:57:56;24.75;;;3.92;;
28166;SDS011;15455;53.376;-6.262;2023-03-31T09:03:58;13.63;;;2.97;;
28166;SDS011;15455;53.376;-6.262;2023-03-31T09:16:30;14.07;;;3.35;;
28166;SDS011;15455;53.376;-6.262;2023-03-31T09:19:29;14.00;;;3.08;;
28166;SDS011;15455;53.376;-6.262;2023-03-31T09:22:24;28.17;;;4.05;;
28166;SDS011;15455;53.376;-6.262;2023-03-31T09:28:20;21.45;;;4.13;;
28166;SDS011;15455;53.376;-6.262;2023-03-31T09:31:18;17.00;;;3.85;;
28166;SDS011;15455;53.376;-6.262;2023-03-31T09:34:09;19.90;;;3.55;;
28166;SDS011;15455;53.376;-6.262;2023-03-31T09:36:58;15.55;;;3.10;;
28166;SDS011;15455;53.376;-6.262;2023-03-31T09:39:44;27.25;;;3.55;;
28166;SDS011;15455;53.376;-6.262;2023-03-31T09:42:30;15.52;;;3.13;;
28166;SDS011;15455;53.376;-6.262;2023-03-31T09:45:16;9.98;;;3.22;;
28166;SDS011;15455;53.376;-6.262;2023-03-31T09:48:06;20.25;;;3.17;;
28166;SDS011;15455;53.376;-6.262;2023-03-31T09:51:05;21.60;;;3.03;;
28166;SDS011;15455;53.376;-6.262;2023-03-31T09:53:57;15.00;;;2.58;;
28166;SDS011;15455;53.376;-6.262;2023-03-31T09:56:51;13.10;;;2.97;;
28166;SDS011;15455;53.376;-6.262;2023-03-31T09:59:40;16.88;;;2.85;;
28166;SDS011;15455;53.376;-6.262;2023-03-31T10:08:29;11.18;;;2.58;;
28166;SDS011;15455;53.376;-6.262;2023-03-31T10:11:16;18.00;;;3.25;;
28166;SDS011;15455;53.376;-6.262;2023-03-31T10:14:03;19.45;;;3.53;;
28166;SDS011;15455;53.376;-6.262;2023-03-31T10:16:55;14.40;;;2.40;;
28166;SDS011;15455;53.376;-6.262;2023-03-31T10:25:29;16.00;;;3.58;;
28166;SDS011;15455;53.376;-6.262;2023-03-31T10:28:18;9.25;;;2.97;;
28166;SDS011;15455;53.376;-6.262;2023-03-31T10:31:05;16.40;;;3.28;;
28166;SDS011;15455;53.376;-6.262;2023-03-31T10:33:52;12.18;;;3.58;;
28166;SDS011;15455;53.376;-6.262;2023-03-31T10:36:39;13.02;;;2.72;;
28166;SDS011;15455;53.376;-6.262;2023-03-31T10:39:38;9.55;;;2.85;;
28166;SDS011;15455;53.376;-6.262;2023-03-31T10:42:25;14.20;;;3.35;;
28166;SDS011;15455;53.376;-6.262;2023-03-31T10:45:17;16.15;;;3.72;;
28166;SDS011;15455;53.376;-6.262;2023-03-31T10:51:15;14.50;;;3.85;;
28166;SDS011;15455;53.376;-6.262;2023-03-31T10:54:02;9.18;;;3.42;;
28166;SDS011;15455;53.376;-6.262;2023-03-31T10:56:53;12.57;;;4.43;;
28166;SDS011;15455;53.376;-6.262;2023-03-31T11:14:42;14.73;;;3.65;;
28166;SDS011;15455;53.376;-6.262;2023-03-31T11:18:10;11.32;;;3.38;;
28166;SDS011;15455;53.376;-6.262;2023-03-31T11:21:12;9.15;;;3.28;;
28166;SDS011;15455;53.376;-6.262;2023-03-31T11:45:51;12.18;;;3.63;;
28166;SDS011;15455;53.376;-6.262;2023-03-31T11:48:44;17.98;;;5.05;;
28166;SDS011;15455;53.376;-6.262;2023-03-31T12:00:52;7.93;;;3.35;;
28166;SDS011;15455;53.376;-6.262;2023-03-31T12:06:45;13.25;;;3.75;;
28166;SDS011;15455;53.376;-6.262;2023-03-31T12:12:53;8.20;;;3.10;;
28166;SDS011;15455;53.376;-6.262;2023-03-31T12:15:51;19.38;;;4.50;;
28166;SDS011;15455;53.376;-6.262;2023-03-31T12:18:57;15.25;;;3.75;;
28166;SDS011;15455;53.376;-6.262;2023-03-31T12:21:48;12.98;;;3.78;;
28166;SDS011;15455;53.376;-6.262;2023-03-31T12:24:37;10.45;;;4.05;;
28166;SDS011;15455;53.376;-6.262;2023-03-31T12:27:28;10.55;;;3.05;;
28166;SDS011;15455;53.376;-6.262;2023-03-31T12:33:59;8.38;;;4.05;;
28166;SDS011;15455;53.376;-6.262;2023-03-31T12:36:38;12.43;;;3.63;;
28166;SDS011;15455;53.376;-6.262;2023-03-31T12:39:29;16.48;;;3.78;;
28166;SDS011;15455;53.376;-6.262;2023-03-31T12:42:43;9.55;;;2.70;;
28166;SDS011;15455;53.376;-6.262;2023-03-31T12:45:33;13.48;;;2.88;;
28166;SDS011;15455;53.376;-6.262;2023-03-31T12:48:47;11.85;;;3.30;;
28166;SDS011;15455;53.376;-6.262;2023-03-31T12:54:56;12.88;;;3.53;;
28166;SDS011;15455;53.376;-6.262;2023-03-31T12:57:46;9.38;;;3.10;;
28166;SDS011;15455;53.376;-6.262;2023-03-31T13:00:32;8.18;;;2.80;;
28166;SDS011;15455;53.376;-6.262;2023-03-31T13:12:06;5.65;;;2.15;;
28166;SDS011;15455;53.376;-6.262;2023-03-31T13:14:56;4.97;;;2.50;;
28166;SDS011;15455;53.376;-6.262;2023-03-31T13:17:46;6.32;;;2.50;;
28166;SDS011;15455;53.376;-6.262;2023-03-31T13:20:44;5.65;;;2.25;;
28166;SDS011;15455;53.376;-6.262;2023-03-31T13:23:32;5.53;;;2.30;;
28166;SDS011;15455;53.376;-6.262;2023-03-31T13:32:22;5.88;;;2.88;;
28166;SDS011;15455;53.376;-6.262;2023-03-31T13:35:19;12.13;;;3.17;;
28166;SDS011;15455;53.376;-6.262;2023-03-31T13:41:35;9.75;;;2.70;;
28166;SDS011;15455;53.376;-6.262;2023-03-31T13:57:16;3.78;;;2.28;;
28166;SDS011;15455;53.376;-6.262;2023-03-31T14:06:25;9.60;;;2.60;;
28166;SDS011;15455;53.376;-6.262;2023-03-31T14:09:32;9.77;;;2.80;;
28166;SDS011;15455;53.376;-6.262;2023-03-31T14:15:21;9.93;;;3.08;;
28166;SDS011;15455;53.376;-6.262;2023-03-31T14:18:06;7.07;;;2.97;;
28166;SDS011;15455;53.376;-6.262;2023-03-31T14:30:28;7.70;;;2.45;;
28166;SDS011;15455;53.376;-6.262;2023-03-31T14:36:52;5.18;;;1.90;;
28166;SDS011;15455;53.376;-6.262;2023-03-31T14:39:45;7.43;;;3.30;;
28166;SDS011;15455;53.376;-6.262;2023-03-31T14:42:39;6.50;;;3.10;;
28166;SDS011;15455;53.376;-6.262;2023-03-31T14:45:29;10.50;;;4.00;;
28166;SDS011;15455;53.376;-6.262;2023-03-31T14:48:15;9.88;;;3.63;;
28166;SDS011;15455;53.376;-6.262;2023-03-31T14:51:01;7.85;;;3.08;;
28166;SDS011;15455;53.376;-6.262;2023-03-31T14:53:47;9.27;;;3.75;;
28166;SDS011;15455;53.376;-6.262;2023-03-31T14:56:39;7.78;;;3.05;;
28166;SDS011;15455;53.376;-6.262;2023-03-31T14:59:26;8.32;;;2.80;;
28166;SDS011;15455;53.376;-6.262;2023-03-31T15:02:18;6.95;;;2.85;;
28166;SDS011;15455;53.376;-6.262;2023-03-31T15:05:17;6.40;;;3.50;;
28166;SDS011;15455;53.376;-6.262;2023-03-31T15:08:15;10.13;;;4.40;;
28166;SDS011;15455;53.376;-6.262;2023-03-31T15:11:05;5.30;;;2.97;;
28166;SDS011;15455;53.376;-6.262;2023-03-31T15:13:57;11.77;;;4.88;;
28166;SDS011;15455;53.376;-6.262;2023-03-31T15:16:49;8.48;;;3.90;;
28166;SDS011;15455;53.376;-6.262;2023-03-31T15:19:35;14.70;;;4.35;;
28166;SDS011;15455;53.376;-6.262;2023-03-31T15:22:21;24.60;;;9.27;;
28166;SDS011;15455;53.376;-6.262;2023-03-31T15:25:11;13.77;;;5.43;;
28166;SDS011;15455;53.376;-6.262;2023-03-31T15:28:11;8.38;;;3.35;;
28166;SDS011;15455;53.376;-6.262;2023-03-31T15:31:01;4.93;;;2.83;;
28166;SDS011;15455;53.376;-6.262;2023-03-31T15:33:54;16.65;;;6.47;;
28166;SDS011;15455;53.376;-6.262;2023-03-31T15:36:40;15.00;;;7.03;;
28166;SDS011;15455;53.376;-6.262;2023-03-31T15:39:30;12.48;;;5.78;;
28166;SDS011;15455;53.376;-6.262;2023-03-31T15:42:18;5.55;;;3.65;;
28166;SDS011;15455;53.376;-6.262;2023-03-31T15:48:08;8.70;;;2.85;;
28166;SDS011;15455;53.376;-6.262;2023-03-31T15:51:05;6.93;;;4.25;;
28166;SDS011;15455;53.376;-6.262;2023-03-31T15:57:11;7.80;;;4.43;;
28166;SDS011;15455;53.376;-6.262;2023-03-31T16:00:02;8.85;;;3.35;;
28166;SDS011;15455;53.376;-6.262;2023-03-31T16:02:58;5.63;;;3.40;;
28166;SDS011;15455;53.376;-6.262;2023-03-31T16:05:55;10.20;;;4.90;;
28166;SDS011;15455;53.376;-6.262;2023-03-31T16:08:47;6.78;;;3.30;;
28166;SDS011;15455;53.376;-6.262;2023-03-31T16:11:54;6.10;;;3.40;;
28166;SDS011;15455;53.376;-6.262;2023-03-31T16:14:45;4.68;;;2.20;;
28166;SDS011;15455;53.376;-6.262;2023-03-31T16:17:48;5.53;;;2.20;;
28166;SDS011;15455;53.376;-6.262;2023-03-31T16:20:59;3.03;;;1.98;;
28166;SDS011;15455;53.376;-6.262;2023-03-31T16:23:48;3.90;;;2.42;;
28166;SDS011;15455;53.376;-6.262;2023-03-31T16:26:37;6.20;;;2.92;;
28166;SDS011;15455;53.376;-6.262;2023-03-31T16:29:22;5.15;;;3.08;;
28166;SDS011;15455;53.376;-6.262;2023-03-31T16:32:15;8.30;;;4.30;;
28166;SDS011;15455;53.376;-6.262;2023-03-31T16:35:03;10.00;;;4.97;;
28166;SDS011;15455;53.376;-6.262;2023-03-31T16:37:52;12.73;;;7.72;;
28166;SDS011;15455;53.376;-6.262;2023-03-31T16:40:39;6.82;;;4.60;;
28166;SDS011;15455;53.376;-6.262;2023-03-31T16:43:27;7.32;;;4.38;;
28166;SDS011;15455;53.376;-6.262;2023-03-31T16:46:15;7.47;;;3.45;;
28166;SDS011;15455;53.376;-6.262;2023-03-31T16:49:00;3.95;;;2.63;;
28166;SDS011;15455;53.376;-6.262;2023-03-31T16:51:46;5.35;;;2.30;;
28166;SDS011;15455;53.376;-6.262;2023-03-31T16:54:31;1.83;;;1.55;;
28166;SDS011;15455;53.376;-6.262;2023-03-31T16:57:16;3.92;;;2.72;;
28166;SDS011;15455;53.376;-6.262;2023-03-31T17:00:02;7.15;;;2.88;;
28166;SDS011;15455;53.376;-6.262;2023-03-31T17:02:48;5.63;;;3.28;;
28166;SDS011;15455;53.376;-6.262;2023-03-31T17:05:38;8.07;;;4.03;;
28166;SDS011;15455;53.376;-6.262;2023-03-31T17:08:28;7.32;;;3.78;;
28166;SDS011;15455;53.376;-6.262;2023-03-31T17:11:13;11.73;;;6.05;;
28166;SDS011;15455;53.376;-6.262;2023-03-31T17:13:58;10.45;;;5.00;;
28166;SDS011;15455;53.376;-6.262;2023-03-31T17:16:44;7.85;;;2.78;;
28166;SDS011;15455;53.376;-6.262;2023-03-31T17:19:32;5.50;;;3.25;;
28166;SDS011;15455;53.376;-6.262;2023-03-31T17:22:17;3.00;;;2.25;;
28166;SDS011;15455;53.376;-6.262;2023-03-31T17:25:03;9.25;;;4.72;;
28166;SDS011;15455;53.376;-6.262;2023-03-31T17:27:49;6.35;;;3.65;;
28166;SDS011;15455;53.376;-6.262;2023-03-31T17:30:35;5.47;;;1.80;;
28166;SDS011;15455;53.376;-6.262;2023-03-31T17:33:20;1.73;;;1.20;;
28166;SDS011;15455;53.376;-6.262;2023-03-31T17:36:06;3.67;;;1.45;;
28166;SDS011;15455;53.376;-6.262;2023-03-31T17:38:52;3.10;;;1.40;;
28166;SDS011;15455;53.376;-6.262;2023-03-31T17:41:39;4.10;;;1.83;;
28166;SDS011;15455;53.376;-6.262;2023-03-31T17:44:24;4.28;;;1.73;;
28166;SDS011;15455;53.376;-6.262;2023-03-31T17:47:10;6.55;;;2.28;;
28166;SDS011;15455;53.376;-6.262;2023-03-31T17:49:55;8.40;;;3.20;;
28166;SDS011;15455;53.376;-6.262;2023-03-31T17:52:41;9.40;;;3.97;;
28166;SDS011;15455;53.376;-6.262;2023-03-31T17:55:26;9.23;;;3.33;;
28166;SDS011;15455;53.376;-6.262;2023-03-31T17:58:12;6.97;;;3.42;;
28166;SDS011;15455;53.376;-6.262;2023-03-31T18:00:57;5.28;;;2.90;;
28166;SDS011;15455;53.376;-6.262;2023-03-31T18:03:44;5.68;;;3.00;;
28166;SDS011;15455;53.376;-6.262;2023-03-31T18:06:30;7.22;;;3.55;;
28166;SDS011;15455;53.376;-6.262;2023-03-31T18:09:15;11.38;;;5.25;;
28166;SDS011;15455;53.376;-6.262;2023-03-31T18:12:01;6.65;;;3.40;;
28166;SDS011;15455;53.376;-6.262;2023-03-31T18:14:48;10.07;;;4.35;;
28166;SDS011;15455;53.376;-6.262;2023-03-31T18:17:34;8.88;;;4.03;;
28166;SDS011;15455;53.376;-6.262;2023-03-31T18:20:20;11.40;;;4.70;;
28166;SDS011;15455;53.376;-6.262;2023-03-31T18:23:07;7.82;;;3.83;;
28166;SDS011;15455;53.376;-6.262;2023-03-31T18:25:52;5.00;;;3.28;;
28166;SDS011;15455;53.376;-6.262;2023-03-31T18:28:37;8.40;;;4.00;;
28166;SDS011;15455;53.376;-6.262;2023-03-31T18:31:25;9.23;;;4.25;;
28166;SDS011;15455;53.376;-6.262;2023-03-31T18:34:13;5.45;;;2.80;;
28166;SDS011;15455;53.376;-6.262;2023-03-31T18:37:00;6.68;;;3.05;;
28166;SDS011;15455;53.376;-6.262;2023-03-31T18:39:47;6.85;;;2.75;;
28166;SDS011;15455;53.376;-6.262;2023-03-31T18:42:33;4.60;;;2.90;;
28166;SDS011;15455;53.376;-6.262;2023-03-31T18:45:18;10.85;;;4.95;;
28166;SDS011;15455;53.376;-6.262;2023-03-31T18:48:04;8.30;;;2.80;;
28166;SDS011;15455;53.376;-6.262;2023-03-31T18:50:50;9.98;;;4.97;;
28166;SDS011;15455;53.376;-6.262;2023-03-31T18:53:36;5.18;;;2.97;;
28166;SDS011;15455;53.376;-6.262;2023-03-31T18:56:21;5.68;;;3.30;;
28166;SDS011;15455;53.376;-6.262;2023-03-31T18:59:07;9.50;;;4.32;;
28166;SDS011;15455;53.376;-6.262;2023-03-31T19:01:52;14.52;;;4.07;;
28166;SDS011;15455;53.376;-6.262;2023-03-31T19:04:38;10.32;;;4.07;;
28166;SDS011;15455;53.376;-6.262;2023-03-31T19:07:23;7.30;;;3.03;;
28166;SDS011;15455;53.376;-6.262;2023-03-31T19:10:09;13.68;;;5.10;;
28166;SDS011;15455;53.376;-6.262;2023-03-31T19:12:54;11.27;;;3.70;;
28166;SDS011;15455;53.376;-6.262;2023-03-31T19:15:41;25.58;;;7.55;;
28166;SDS011;15455;53.376;-6.262;2023-03-31T19:18:27;15.73;;;6.18;;
28166;SDS011;15455;53.376;-6.262;2023-03-31T19:21:14;7.15;;;3.55;;
28166;SDS011;15455;53.376;-6.262;2023-03-31T19:23:59;8.23;;;3.90;;
28166;SDS011;15455;53.376;-6.262;2023-03-31T19:26:45;10.10;;;4.75;;
28166;SDS011;15455;53.376;-6.262;2023-03-31T19:29:31;13.02;;;5.18;;
28166;SDS011;15455;53.376;-6.262;2023-03-31T19:32:19;7.43;;;2.75;;
28166;SDS011;15455;53.376;-6.262;2023-03-31T19:35:04;6.28;;;3.17;;
28166;SDS011;15455;53.376;-6.262;2023-03-31T19:37:50;10.55;;;3.70;;
28166;SDS011;15455;53.376;-6.262;2023-03-31T19:40:37;6.13;;;3.60;;
28166;SDS011;15455;53.376;-6.262;2023-03-31T19:43:24;12.65;;;5.18;;
28166;SDS011;15455;53.376;-6.262;2023-03-31T19:46:09;8.77;;;5.20;;
28166;SDS011;15455;53.376;-6.262;2023-03-31T19:48:55;8.70;;;4.45;;